Time;durP1;ratioP1;P1;durP2;ratioP2;P2;SDS_P1;SDS_P2;PMS_P1;PMS_P2;Temp;Humidity;BMP_temperature;BMP_pressure;BME280_temperature;BME280_humidity;BME280_pressure;Samples;Min_cycle;Max_cycle;Signal;HPM_P1;HPM_P2
2023/07/08 00:01:35;;;;;;;;;13.50;11.75;26.40;57.40;;;;;;111612;1238;44522;-63
2023/07/08 00:04:04;;;;;;;;;11.00;10.50;26.30;57.40;;;;;;111598;1237;49212;-62
2023/07/08 00:06:31;;;;;;;;;11.25;10.00;26.30;57.50;;;;;;111377;1237;49413;-63
2023/07/08 00:08:58;;;;;;;;;11.00;10.00;26.30;57.50;;;;;;111508;1241;54375;-66
2023/07/08 00:11:26;;;;;;;;;10.50;9.00;26.30;57.50;;;;;;111582;1238;44867;-63
2023/07/08 00:13:53;;;;;;;;;10.00;9.00;26.30;57.40;;;;;;111714;1242;48917;-64
2023/07/08 00:16:20;;;;;;;;;12.00;10.00;26.30;57.50;;;;;;111185;1238;49509;-64
2023/07/08 00:18:50;;;;;;;;;10.00;9.67;26.30;57.60;;;;;;111599;1239;55138;-65
2023/07/08 00:21:18;;;;;;;;;13.00;12.00;26.30;57.60;;;;;;111571;1241;45192;-65
2023/07/08 00:23:50;;;;;;;;;13.00;12.00;26.30;57.60;;;;;;111554;1239;49295;-65
2023/07/08 00:26:26;;;;;;;;;12.75;12.00;26.30;57.50;;;;;;111146;1238;50639;-62
2023/07/08 00:28:54;;;;;;;;;12.00;11.00;26.30;57.50;;;;;;111200;1239;54571;-63
2023/07/08 00:31:25;;;;;;;;;13.25;13.00;26.30;57.40;;;;;;111265;1239;44367;-63
2023/07/08 00:33:55;;;;;;;;;12.00;10.00;26.30;57.60;;;;;;111979;1241;48736;-63
2023/07/08 00:36:23;;;;;;;;;12.50;11.75;26.30;57.40;;;;;;112083;1238;48945;-62
2023/07/08 00:38:50;;;;;;;;;12.25;11.00;26.30;57.30;;;;;;111553;1241;53892;-64
2023/07/08 00:41:22;;;;;;;;;13.25;12.50;26.30;57.30;;;;;;111524;1238;45672;-64
2023/07/08 00:43:52;;;;;;;;;11.33;10.33;26.30;57.30;;;;;;111612;1239;49706;-63
2023/07/08 00:46:31;;;;;;;;;13.00;12.00;26.30;57.30;;;;;;111880;1243;49995;-63
2023/07/08 00:49:07;;;;;;;;;12.00;11.33;26.30;57.40;;;;;;111639;1238;54173;-63
2023/07/08 00:51:37;;;;;;;;;13.00;12.00;26.30;57.30;;;;;;111804;1241;44586;-63
2023/07/08 00:54:15;;;;;;;;;12.25;10.25;26.30;57.30;;;;;;111865;1238;50361;-64
2023/07/08 00:56:54;;;;;;;;;12.00;11.00;26.30;57.30;;;;;;111728;1238;49289;-64
2023/07/08 00:59:26;;;;;;;;;14.00;12.00;26.30;57.30;;;;;;111558;1238;54591;-62
2023/07/08 01:01:54;;;;;;;;;13.00;12.00;26.30;57.20;;;;;;111619;1237;45038;-64
2023/07/08 01:05:02;;;;;;;;;14.00;11.00;26.20;57.10;;;;;;111606;1238;49936;-63
2023/07/08 01:07:32;;;;;;;;;12.00;12.00;26.20;57.20;;;;;;111591;1238;49254;-63
2023/07/08 01:10:23;;;;;;;;;12.00;11.25;26.20;57.20;;;;;;111609;1239;54804;-62
2023/07/08 01:12:56;;;;;;;;;13.00;12.00;26.20;57.10;;;;;;111656;1241;45308;-64
2023/07/08 01:15:26;;;;;;;;;12.00;11.25;26.20;57.10;;;;;;111706;1238;49645;-65
2023/07/08 01:17:55;;;;;;;;;12.25;11.75;26.20;57.10;;;;;;111482;1238;49926;-64
2023/07/08 01:20:22;;;;;;;;;12.00;10.25;26.20;57.30;;;;;;111300;1243;54343;-63
2023/07/08 01:22:49;;;;;;;;;14.00;13.75;26.20;57.10;;;;;;111685;1238;44217;-64
2023/07/08 01:25:16;;;;;;;;;15.00;14.00;26.10;57.10;;;;;;111291;1247;49095;-63
2023/07/08 01:27:47;;;;;;;;;12.75;11.75;26.10;57.20;;;;;;111527;1238;49841;-63
2023/07/08 01:30:14;;;;;;;;;15.33;14.00;26.10;57.10;;;;;;111686;1238;54303;-63
2023/07/08 01:32:47;;;;;;;;;12.75;12.25;26.10;57.30;;;;;;111444;1244;44871;-63
2023/07/08 01:35:15;;;;;;;;;13.75;11.75;26.10;57.10;;;;;;111272;1238;49342;-64
2023/07/08 01:37:47;;;;;;;;;11.25;10.50;26.10;57.10;;;;;;111452;1238;49542;-64
2023/07/08 01:40:30;;;;;;;;;14.00;11.50;26.10;57.10;;;;;;111213;1244;54069;-64
2023/07/08 01:42:58;;;;;;;;;12.00;11.67;26.00;57.20;;;;;;111615;1241;44879;-64
2023/07/08 01:45:30;;;;;;;;;14.00;12.50;26.10;57.00;;;;;;112007;1244;49242;-64
2023/07/08 01:48:03;;;;;;;;;13.25;12.50;26.00;57.00;;;;;;111274;1242;50435;-63
2023/07/08 01:50:32;;;;;;;;;13.75;11.00;26.10;57.00;;;;;;111592;1237;53778;-62
2023/07/08 01:53:01;;;;;;;;;15.00;13.25;26.00;56.90;;;;;;111571;1241;44784;-65
2023/07/08 01:55:28;;;;;;;;;13.00;11.00;26.00;56.90;;;;;;111768;1241;49578;-64
2023/07/08 01:57:55;;;;;;;;;12.25;12.00;26.00;57.00;;;;;;111533;1241;50310;-62
2023/07/08 02:00:22;;;;;;;;;15.75;12.50;26.00;57.00;;;;;;111839;1238;53620;-63
2023/07/08 02:02:50;;;;;;;;;12.50;12.00;26.00;57.00;;;;;;111646;1247;44427;-63
2023/07/08 02:05:18;;;;;;;;;12.67;12.33;26.00;57.00;;;;;;111726;1247;48925;-63
2023/07/08 02:07:45;;;;;;;;;14.00;12.00;26.00;57.10;;;;;;111537;1241;49173;-63
2023/07/08 02:10:12;;;;;;;;;14.25;13.25;25.90;57.00;;;;;;111467;1238;54144;-63
2023/07/08 02:12:39;;;;;;;;;14.25;13.25;25.90;57.20;;;;;;111623;1240;44353;-64
2023/07/08 02:15:08;;;;;;;;;14.00;13.00;25.90;57.00;;;;;;112100;1241;49354;-65
2023/07/08 02:17:35;;;;;;;;;14.00;13.00;25.90;57.10;;;;;;111859;1238;49723;-65
2023/07/08 02:20:03;;;;;;;;;14.00;12.75;25.90;57.10;;;;;;111573;1238;53817;-63
2023/07/08 02:22:30;;;;;;;;;12.00;11.75;25.90;57.00;;;;;;111620;1237;44839;-66
2023/07/08 02:24:57;;;;;;;;;12.00;11.00;25.90;57.20;;;;;;111590;1237;49786;-64
2023/07/08 02:27:24;;;;;;;;;12.67;11.00;25.90;57.50;;;;;;111537;1238;50450;-64
2023/07/08 02:29:51;;;;;;;;;12.75;11.75;25.90;57.00;;;;;;111756;1238;54866;-63
2023/07/08 02:32:19;;;;;;;;;12.00;11.50;25.90;57.00;;;;;;111630;1241;45788;-64
2023/07/08 02:34:45;;;;;;;;;15.00;14.75;25.90;57.00;;;;;;112095;1244;49469;-65
2023/07/08 02:37:12;;;;;;;;;14.50;13.75;25.90;57.00;;;;;;111429;1239;49951;-64
2023/07/08 02:39:39;;;;;;;;;12.00;11.75;25.90;57.00;;;;;;111609;1241;54017;-62
2023/07/08 02:42:07;;;;;;;;;12.00;11.33;25.90;57.10;;;;;;111575;1238;45039;-64
2023/07/08 02:44:33;;;;;;;;;14.00;12.00;25.80;56.90;;;;;;111480;1237;48890;-64
2023/07/08 02:47:00;;;;;;;;;13.25;13.00;25.90;57.00;;;;;;111613;1241;49568;-62
2023/07/08 02:49:28;;;;;;;;;14.50;13.25;25.80;56.90;;;;;;111855;1238;54253;-63
2023/07/08 02:51:55;;;;;;;;;13.50;12.00;25.80;57.10;;;;;;111447;1238;45714;-63
2023/07/08 02:54:22;;;;;;;;;15.50;14.50;25.80;56.90;;;;;;111678;1238;49585;-62
2023/07/08 02:56:49;;;;;;;;;16.00;15.00;25.80;56.90;;;;;;111594;1241;48961;-66
2023/07/08 02:59:16;;;;;;;;;14.00;12.75;25.80;57.40;;;;;;111605;1238;53926;-65
2023/07/08 03:01:43;;;;;;;;;15.00;14.00;25.80;56.90;;;;;;111636;1241;44864;-67
2023/07/08 03:04:13;;;;;;;;;13.25;12.25;25.80;56.90;;;;;;111588;1241;49253;-64
2023/07/08 03:06:44;;;;;;;;;15.00;13.00;25.80;56.90;;;;;;111448;1241;50034;-63
2023/07/08 03:09:12;;;;;;;;;12.25;11.25;25.80;56.90;;;;;;111431;1243;53908;-63
2023/07/08 03:11:40;;;;;;;;;13.00;12.50;25.70;57.00;;;;;;111421;1238;45533;-66
2023/07/08 03:14:06;;;;;;;;;12.50;12.00;25.70;56.90;;;;;;111470;1238;49445;-63
2023/07/08 03:16:33;;;;;;;;;11.50;11.00;25.70;57.00;;;;;;111630;1241;49499;-64
2023/07/08 03:19:01;;;;;;;;;13.00;12.75;25.70;57.10;;;;;;111462;1241;53631;-64
2023/07/08 03:21:28;;;;;;;;;15.00;14.00;25.70;57.30;;;;;;111414;1238;45328;-63
2023/07/08 03:23:55;;;;;;;;;15.00;13.00;25.70;56.90;;;;;;111556;1239;49523;-64
2023/07/08 03:26:24;;;;;;;;;14.75;14.25;25.60;56.80;;;;;;112144;1238;49569;-64
2023/07/08 03:28:51;;;;;;;;;14.33;13.00;25.70;56.90;;;;;;111707;1238;54301;-64
2023/07/08 03:31:18;;;;;;;;;15.00;12.75;25.60;56.70;;;;;;111870;1238;44257;-64
2023/07/08 03:33:45;;;;;;;;;14.50;14.25;25.70;56.90;;;;;;111540;1239;49039;-65
2023/07/08 03:36:24;;;;;;;;;14.00;13.33;25.70;56.70;;;;;;111614;1238;49899;-66
2023/07/08 03:38:53;;;;;;;;;13.50;13.25;25.60;56.70;;;;;;111503;1238;53591;-65
2023/07/08 03:41:20;;;;;;;;;14.00;13.00;25.60;56.60;;;;;;111645;1241;45688;-64
2023/07/08 03:43:47;;;;;;;;;15.75;14.75;25.60;56.50;;;;;;111538;1238;49499;-64
2023/07/08 03:46:15;;;;;;;;;15.00;14.00;25.70;56.50;;;;;;111570;1238;49498;-64
2023/07/08 03:48:42;;;;;;;;;15.50;14.25;25.60;56.70;;;;;;111462;1238;54270;-65
2023/07/08 03:51:20;;;;;;;;;15.25;14.00;25.60;56.70;;;;;;111730;1241;45107;-64
2023/07/08 03:53:47;;;;;;;;;13.75;11.50;25.60;56.70;;;;;;111365;1238;49371;-65
2023/07/08 03:56:14;;;;;;;;;14.00;13.00;25.60;56.70;;;;;;111681;1238;49971;-64
2023/07/08 03:58:40;;;;;;;;;15.00;13.00;25.60;56.50;;;;;;111682;1246;54191;-64
2023/07/08 04:01:18;;;;;;;;;15.00;13.75;25.60;56.50;;;;;;111693;1239;45203;-65
2023/07/08 04:03:45;;;;;;;;;14.00;13.67;25.60;56.50;;;;;;111553;1241;51098;-64
2023/07/08 04:06:13;;;;;;;;;15.75;15.00;25.50;56.50;;;;;;111527;1238;50002;-64
2023/07/08 04:08:40;;;;;;;;;19.00;16.50;25.60;56.60;;;;;;111217;1243;53600;-63
2023/07/08 04:11:08;;;;;;;;;14.75;13.00;25.60;56.80;;;;;;111632;1242;44367;-64
2023/07/08 04:13:35;;;;;;;;;13.00;11.75;25.50;56.70;;;;;;111652;1241;49833;-65
2023/07/08 04:16:04;;;;;;;;;14.00;13.00;25.50;56.50;;;;;;111622;1240;49579;-64
2023/07/08 04:18:31;;;;;;;;;14.00;13.33;25.50;56.60;;;;;;111652;1241;53367;-64
2023/07/08 04:20:59;;;;;;;;;14.00;13.00;25.50;56.50;;;;;;111408;1242;44319;-64
2023/07/08 04:23:26;;;;;;;;;13.33;13.00;25.50;56.60;;;;;;111317;1237;49269;-64
2023/07/08 04:25:55;;;;;;;;;14.50;14.00;25.50;56.50;;;;;;111576;1238;49855;-63
2023/07/08 04:28:23;;;;;;;;;14.50;12.00;25.50;56.80;;;;;;111277;1238;54833;-63
2023/07/08 04:30:49;;;;;;;;;15.25;15.00;25.50;56.60;;;;;;111605;1245;44583;-64
2023/07/08 04:33:17;;;;;;;;;17.00;14.25;25.50;56.70;;;;;;111464;1241;49603;-62
2023/07/08 04:35:44;;;;;;;;;14.00;13.00;25.50;56.60;;;;;;111617;1241;49567;-63
2023/07/08 04:38:18;;;;;;;;;14.00;12.75;25.50;56.70;;;;;;111476;1238;54131;-64
2023/07/08 04:40:45;;;;;;;;;14.00;13.00;25.50;56.80;;;;;;111791;1241;44780;-64
2023/07/08 04:43:12;;;;;;;;;13.00;12.25;25.50;56.60;;;;;;111590;1242;48982;-63
2023/07/08 04:45:43;;;;;;;;;14.75;14.00;25.50;56.80;;;;;;111569;1241;49687;-64
2023/07/08 04:48:15;;;;;;;;;14.50;13.25;25.50;56.80;;;;;;111599;1243;54422;-63
2023/07/08 04:50:43;;;;;;;;;14.67;14.00;25.50;56.60;;;;;;111257;1238;44356;-63
2023/07/08 04:53:11;;;;;;;;;16.25;15.00;25.50;56.50;;;;;;111642;1238;49975;-64
2023/07/08 04:55:46;;;;;;;;;13.25;12.25;25.50;56.50;;;;;;111488;1237;49863;-64
2023/07/08 04:58:13;;;;;;;;;15.50;13.75;25.50;56.80;;;;;;111540;1238;53933;-65
2023/07/08 05:00:39;;;;;;;;;13.75;13.00;25.50;56.70;;;;;;111599;1241;45066;-65
2023/07/08 05:03:06;;;;;;;;;13.33;13.00;25.50;56.70;;;;;;111871;1241;49665;-65
2023/07/08 05:05:33;;;;;;;;;14.00;12.50;25.50;56.80;;;;;;112081;1241;49831;-65
2023/07/08 05:08:00;;;;;;;;;15.75;14.75;25.50;56.80;;;;;;111650;1241;54435;-65
2023/07/08 05:10:27;;;;;;;;;12.50;11.00;25.50;56.70;;;;;;111829;1241;44683;-65
2023/07/08 05:12:55;;;;;;;;;13.00;13.00;25.50;56.70;;;;;;111822;1241;49878;-64
2023/07/08 05:15:21;;;;;;;;;14.33;13.67;25.50;56.70;;;;;;111990;1238;48912;-63
2023/07/08 05:17:50;;;;;;;;;15.00;14.00;25.50;56.70;;;;;;111805;1241;53504;-66
2023/07/08 05:20:18;;;;;;;;;14.33;13.67;25.50;56.50;;;;;;111830;1245;44577;-64
2023/07/08 05:22:51;;;;;;;;;14.00;13.00;25.50;56.50;;;;;;111788;1238;49454;-73
2023/07/08 05:25:20;;;;;;;;;14.33;13.33;25.50;56.50;;;;;;111407;1238;49077;-62
2023/07/08 05:27:48;;;;;;;;;13.50;12.00;25.50;56.40;;;;;;111594;1238;53412;-59
2023/07/08 05:30:17;;;;;;;;;14.25;13.75;25.50;56.60;;;;;;111397;1238;44896;-59
2023/07/08 05:32:45;;;;;;;;;14.00;12.00;25.50;56.40;;;;;;111893;1241;49669;-63
2023/07/08 05:35:12;;;;;;;;;13.00;12.00;25.50;56.50;;;;;;111658;1238;49918;-61
2023/07/08 05:37:39;;;;;;;;;12.00;11.25;25.60;56.50;;;;;;111002;1238;699288;-61
2023/07/08 05:40:08;;;;;;;;;13.67;12.33;25.60;56.50;;;;;;111585;1238;44553;-60
2023/07/08 05:42:35;;;;;;;;;13.25;11.25;25.60;56.50;;;;;;111564;1239;49880;-62
2023/07/08 05:45:03;;;;;;;;;12.00;11.00;25.60;56.50;;;;;;111415;1237;49643;-59
2023/07/08 05:47:30;;;;;;;;;14.00;13.00;25.60;56.40;;;;;;111607;1237;54140;-61
2023/07/08 05:49:57;;;;;;;;;13.00;12.00;25.70;56.50;;;;;;111489;1241;44358;-60
2023/07/08 05:52:25;;;;;;;;;13.00;12.00;25.60;56.40;;;;;;111591;1241;49688;-61
2023/07/08 05:54:51;;;;;;;;;13.00;13.00;25.60;56.40;;;;;;111418;1238;50281;-60
2023/07/08 05:57:19;;;;;;;;;12.00;11.00;25.60;56.40;;;;;;111425;1238;53907;-61
2023/07/08 05:59:46;;;;;;;;;13.00;12.00;25.60;56.60;;;;;;111562;1237;44849;-61
2023/07/08 06:02:13;;;;;;;;;14.75;12.50;25.60;56.40;;;;;;111645;1237;49525;-61
2023/07/08 06:04:40;;;;;;;;;14.00;12.00;25.60;56.50;;;;;;111655;1238;49656;-61
2023/07/08 06:07:08;;;;;;;;;12.75;11.00;25.60;56.60;;;;;;111741;1241;53743;-61
2023/07/08 06:09:35;;;;;;;;;14.25;12.25;25.60;57.10;;;;;;111666;1242;45375;-61
2023/07/08 06:12:02;;;;;;;;;14.33;12.33;25.60;56.70;;;;;;111650;1237;49888;-61
2023/07/08 06:14:29;;;;;;;;;15.33;13.00;25.60;56.70;;;;;;111377;1241;50966;-60
2023/07/08 06:16:58;;;;;;;;;14.00;12.75;25.60;56.70;;;;;;111610;1241;55138;-60
2023/07/08 06:19:25;;;;;;;;;12.75;12.25;25.60;56.70;;;;;;111634;1241;44814;-61
2023/07/08 06:21:52;;;;;;;;;12.50;12.25;25.60;56.70;;;;;;111610;1241;48767;-60
2023/07/08 06:24:19;;;;;;;;;13.25;12.50;25.70;56.70;;;;;;111286;1239;50090;-61
2023/07/08 06:26:46;;;;;;;;;15.00;13.00;25.70;56.70;;;;;;111483;1242;54514;-60
2023/07/08 06:29:13;;;;;;;;;13.25;12.50;25.80;56.70;;;;;;111646;1238;45317;-64
2023/07/08 06:31:39;;;;;;;;;14.00;12.33;25.80;56.90;;;;;;111694;1238;49510;-61
2023/07/08 06:34:06;;;;;;;;;13.75;13.00;25.80;57.50;;;;;;111492;1238;50553;-62
2023/07/08 06:36:34;;;;;;;;;15.00;13.00;25.80;57.40;;;;;;111632;1241;54396;-61
2023/07/08 06:39:01;;;;;;;;;17.00;14.00;25.90;57.10;;;;;;111592;1242;44628;-62
2023/07/08 06:41:28;;;;;;;;;15.50;14.00;25.90;56.90;;;;;;111605;1241;49774;-61
2023/07/08 06:43:55;;;;;;;;;17.67;14.33;25.90;56.80;;;;;;111422;1238;49630;-63
2023/07/08 06:46:22;;;;;;;;;15.67;13.00;25.90;57.00;;;;;;111755;1238;53953;-62
2023/07/08 06:48:48;;;;;;;;;14.33;13.67;25.90;56.70;;;;;;111615;1238;44549;-62
2023/07/08 06:51:15;;;;;;;;;15.00;12.33;26.00;56.90;;;;;;111469;1244;50240;-60
2023/07/08 06:53:42;;;;;;;;;15.67;13.00;26.00;56.60;;;;;;111485;1238;49496;-62
2023/07/08 06:56:09;;;;;;;;;14.75;14.25;26.00;56.70;;;;;;111646;1237;53440;-62
2023/07/08 06:58:36;;;;;;;;;15.25;14.25;26.00;56.60;;;;;;111564;1239;44503;-62
2023/07/08 07:01:03;;;;;;;;;14.00;12.00;26.00;56.50;;;;;;111647;1237;48951;-62
2023/07/08 07:03:30;;;;;;;;;15.25;13.00;26.00;56.50;;;;;;111532;1241;50423;-63
2023/07/08 07:05:57;;;;;;;;;15.75;14.25;26.00;56.70;;;;;;111489;1238;54450;-62
2023/07/08 07:08:24;;;;;;;;;15.25;14.50;26.10;56.50;;;;;;111214;1241;44423;-62
2023/07/08 07:10:51;;;;;;;;;15.67;13.33;26.10;56.40;;;;;;111446;1238;50387;-62
2023/07/08 07:13:18;;;;;;;;;16.25;13.00;26.10;56.40;;;;;;111697;1241;50245;-62
2023/07/08 07:15:48;;;;;;;;;14.75;12.00;26.10;56.40;;;;;;111694;1241;53815;-62
2023/07/08 07:18:15;;;;;;;;;14.00;14.00;26.10;56.40;;;;;;111712;1238;44322;-62
2023/07/08 07:20:53;;;;;;;;;12.75;10.25;26.10;56.50;;;;;;111697;1241;50168;-62
2023/07/08 07:23:20;;;;;;;;;14.00;14.00;26.10;56.30;;;;;;111488;1244;49603;-63
2023/07/08 07:25:47;;;;;;;;;17.00;14.00;26.10;56.50;;;;;;111526;1238;53739;-63
2023/07/08 07:28:16;;;;;;;;;13.67;12.00;26.10;56.30;;;;;;111503;1239;46508;-65
2023/07/08 07:30:44;;;;;;;;;13.00;12.00;26.20;56.30;;;;;;111603;1238;49167;-61
2023/07/08 07:33:11;;;;;;;;;16.33;13.33;26.20;56.30;;;;;;111449;1238;50462;-63
2023/07/08 07:35:45;;;;;;;;;13.25;12.00;26.20;56.30;;;;;;111514;1239;53895;-63
2023/07/08 07:38:14;;;;;;;;;13.75;13.00;26.20;56.30;;;;;;111534;1238;44261;-62
2023/07/08 07:40:41;;;;;;;;;14.25;11.75;26.20;56.30;;;;;;111522;1242;50244;-61
2023/07/08 07:43:08;;;;;;;;;15.00;12.25;26.20;56.30;;;;;;111680;1241;50433;-61
2023/07/08 07:45:35;;;;;;;;;12.67;11.00;26.20;56.30;;;;;;111612;1238;53342;-63
2023/07/08 07:48:03;;;;;;;;;13.00;11.00;26.30;56.50;;;;;;111718;1238;45930;-62
2023/07/08 07:50:31;;;;;;;;;14.00;13.00;26.30;56.30;;;;;;111743;1241;49440;-61
2023/07/08 07:52:58;;;;;;;;;13.67;13.00;26.30;56.30;;;;;;111496;1238;48940;-62
2023/07/08 07:55:25;;;;;;;;;15.50;12.00;26.30;56.30;;;;;;111674;1243;53993;-61
2023/07/08 07:57:52;;;;;;;;;14.00;13.75;26.30;56.60;;;;;;111684;1238;44446;-62
2023/07/08 08:00:19;;;;;;;;;13.00;12.00;26.30;56.40;;;;;;111587;1238;50017;-61
2023/07/08 08:02:46;;;;;;;;;13.50;12.75;26.30;56.20;;;;;;111710;1240;49589;-63
2023/07/08 08:05:14;;;;;;;;;14.00;12.00;26.40;56.30;;;;;;111555;1241;53844;-66
2023/07/08 08:07:41;;;;;;;;;14.67;14.00;26.40;56.30;;;;;;111463;1241;45777;-62
2023/07/08 08:10:09;;;;;;;;;14.00;12.75;26.40;56.30;;;;;;111498;1241;49957;-62
2023/07/08 08:12:36;;;;;;;;;15.75;13.00;26.40;56.20;;;;;;111729;1242;48973;-61
2023/07/08 08:15:03;;;;;;;;;14.50;12.75;26.40;56.40;;;;;;111556;1237;53583;-61
2023/07/08 08:17:30;;;;;;;;;15.33;13.00;26.40;56.20;;;;;;111754;1237;45417;-62
2023/07/08 08:19:57;;;;;;;;;12.75;11.75;26.50;56.40;;;;;;111490;1241;50455;-61
2023/07/08 08:22:24;;;;;;;;;13.67;12.67;26.50;56.20;;;;;;111407;1238;49060;-62
2023/07/08 08:24:51;;;;;;;;;12.25;10.25;26.50;56.30;;;;;;111406;1239;55044;-62
2023/07/08 08:27:18;;;;;;;;;11.00;10.00;26.50;56.10;;;;;;111603;1241;44204;-61
2023/07/08 08:29:45;;;;;;;;;11.00;10.25;26.50;56.10;;;;;;111689;1237;49392;-62
2023/07/08 08:32:14;;;;;;;;;12.33;11.00;26.50;56.00;;;;;;111524;1238;50293;-61
2023/07/08 08:34:41;;;;;;;;;15.50;13.25;26.50;56.00;;;;;;111586;1238;53564;-62
2023/07/08 08:37:07;;;;;;;;;13.00;11.25;26.50;56.00;;;;;;111419;1238;44356;-62
2023/07/08 08:39:34;;;;;;;;;12.75;12.00;26.60;55.90;;;;;;111457;1241;50645;-63
2023/07/08 08:42:02;;;;;;;;;13.00;12.75;26.60;55.90;;;;;;111664;1241;48976;-61
2023/07/08 08:44:32;;;;;;;;;11.50;11.00;26.60;55.80;;;;;;111704;1238;54182;-61
2023/07/08 08:47:36;;;;;;;;;12.00;11.00;26.60;55.80;;;;;;111706;1238;45016;-61
2023/07/08 08:50:12;;;;;;;;;14.00;10.00;26.60;55.80;;;;;;111285;1242;49572;-61
2023/07/08 08:52:41;;;;;;;;;10.75;10.00;26.60;55.80;;;;;;111507;1237;50136;-63
2023/07/08 08:55:13;;;;;;;;;11.25;11.25;26.70;55.70;;;;;;111522;1242;53156;-62
2023/07/08 08:57:50;;;;;;;;;14.25;12.25;26.70;55.70;;;;;;111619;1242;44636;-63
2023/07/08 09:00:24;;;;;;;;;12.75;11.75;26.70;55.70;;;;;;111519;1237;49562;-62
2023/07/08 09:03:02;;;;;;;;;11.00;10.00;26.70;55.60;;;;;;111527;1238;48852;-62
2023/07/08 09:05:29;;;;;;;;;12.00;11.25;26.80;55.60;;;;;;111333;1244;53848;-62
2023/07/08 09:08:15;;;;;;;;;12.00;10.50;26.80;55.60;;;;;;111515;1242;44806;-62
2023/07/08 09:10:49;;;;;;;;;12.50;12.25;26.80;55.50;;;;;;111442;1242;49016;-61
2023/07/08 09:13:25;;;;;;;;;12.75;11.75;26.80;55.50;;;;;;111643;1239;49059;-62
2023/07/08 09:16:18;;;;;;;;;12.33;11.33;26.80;55.40;;;;;;111657;1237;53892;-62
2023/07/08 09:19:34;;;;;;;;;13.00;11.25;26.80;55.60;;;;;;111588;1238;44286;-63
2023/07/08 09:22:21;;;;;;;;;10.33;10.00;26.90;55.40;;;;;;111337;1238;49624;-63
2023/07/08 09:25:01;;;;;;;;;13.00;12.00;26.90;55.30;;;;;;111511;1238;49489;-62
2023/07/08 09:27:28;;;;;;;;;10.50;10.00;26.90;55.10;;;;;;111537;1238;55007;-63
2023/07/08 09:29:56;;;;;;;;;13.75;12.50;27.00;55.10;;;;;;111730;1241;44411;-63
2023/07/08 09:32:26;;;;;;;;;10.00;9.75;27.00;55.10;;;;;;111714;1242;49242;-62
2023/07/08 09:34:55;;;;;;;;;14.00;11.75;27.00;55.10;;;;;;111597;1242;49885;-62
2023/07/08 09:37:35;;;;;;;;;13.00;11.00;27.00;55.10;;;;;;111571;1238;54058;-62
2023/07/08 09:40:28;;;;;;;;;11.50;10.50;27.00;55.10;;;;;;111378;1243;44517;-62
2023/07/08 09:43:30;;;;;;;;;11.25;10.50;27.00;55.00;;;;;;111486;1238;49572;-62
2023/07/08 09:45:58;;;;;;;;;11.00;10.00;27.00;55.00;;;;;;111692;1241;49591;-63
2023/07/08 09:48:29;;;;;;;;;11.00;10.00;27.00;54.90;;;;;;111681;1239;53353;-62
2023/07/08 09:50:57;;;;;;;;;11.00;10.67;27.10;54.90;;;;;;111507;1238;45799;-62
2023/07/08 09:53:26;;;;;;;;;11.50;10.75;27.10;54.90;;;;;;111476;1238;50097;-62
2023/07/08 09:55:57;;;;;;;;;10.00;9.00;27.10;54.90;;;;;;111728;1241;49777;-62
2023/07/08 09:58:33;;;;;;;;;11.00;10.25;27.10;54.80;;;;;;111403;1241;54163;-63
2023/07/08 10:01:10;;;;;;;;;10.50;9.75;27.10;54.80;;;;;;111720;1241;44319;-63
2023/07/08 10:03:37;;;;;;;;;11.25;9.50;27.10;54.70;;;;;;111714;1237;50462;-63
2023/07/08 10:06:20;;;;;;;;;12.00;10.50;27.10;54.70;;;;;;111332;1239;49309;-62
2023/07/08 10:08:47;;;;;;;;;9.75;9.00;27.20;54.70;;;;;;111292;1238;54131;-63
2023/07/08 10:11:14;;;;;;;;;9.00;8.50;27.20;54.60;;;;;;111678;1238;45592;-64
2023/07/08 10:13:43;;;;;;;;;10.00;9.33;27.20;54.60;;;;;;111341;1238;49039;-62
2023/07/08 10:16:14;;;;;;;;;12.00;11.50;27.20;54.80;;;;;;111650;1238;48885;-64
2023/07/08 10:18:41;;;;;;;;;12.00;11.00;27.20;53.40;;;;;;111628;1241;54544;-64
2023/07/08 10:21:30;;;;;;;;;13.00;11.00;27.30;51.10;;;;;;111794;1238;44893;-63
2023/07/08 10:24:16;;;;;;;;;13.00;12.00;27.30;51.50;;;;;;111385;1237;49374;-63
2023/07/08 10:26:46;;;;;;;;;13.00;11.67;27.30;52.20;;;;;;111550;1241;49199;-63
2023/07/08 10:29:17;;;;;;;;;12.75;11.00;27.30;52.50;;;;;;111523;1241;54188;-64
2023/07/08 10:31:59;;;;;;;;;11.00;10.00;27.40;52.50;;;;;;111437;1244;45224;-63
2023/07/08 10:34:47;;;;;;;;;12.75;11.75;27.40;52.60;;;;;;111549;1241;49135;-62
2023/07/08 10:37:20;;;;;;;;;9.33;9.00;27.40;52.70;;;;;;111415;1244;49555;-63
2023/07/08 10:39:59;;;;;;;;;12.00;11.75;27.40;52.70;;;;;;111321;1238;53450;-63
2023/07/08 10:42:59;;;;;;;;;11.25;10.25;27.40;52.80;;;;;;111685;1238;44885;-63
2023/07/08 10:45:31;;;;;;;;;10.33;9.00;27.40;53.00;;;;;;111519;1239;49190;-63
2023/07/08 10:48:24;;;;;;;;;9.00;8.50;27.40;52.80;;;;;;111548;1238;49408;-63
2023/07/08 10:51:01;;;;;;;;;12.75;11.25;27.50;53.10;;;;;;111456;1239;54260;-64
2023/07/08 10:53:35;;;;;;;;;10.00;9.00;27.50;52.90;;;;;;111568;1238;44965;-63
2023/07/08 10:56:19;;;;;;;;;10.00;9.00;27.50;52.90;;;;;;111705;1237;48954;-63
2023/07/08 10:59:07;;;;;;;;;14.00;12.00;27.50;52.90;;;;;;111707;1241;48892;-63
2023/07/08 11:01:59;;;;;;;;;9.75;9.00;27.50;53.00;;;;;;111537;1241;53543;-63
2023/07/08 11:04:37;;;;;;;;;11.50;11.00;27.50;52.80;;;;;;111412;1238;45157;-63
2023/07/08 11:07:12;;;;;;;;;11.00;10.00;27.50;52.80;;;;;;111485;1238;49114;-64
2023/07/08 11:09:46;;;;;;;;;11.00;10.00;27.50;52.70;;;;;;111636;1241;49129;-62
2023/07/08 11:12:39;;;;;;;;;11.00;10.00;27.60;53.30;;;;;;111667;1241;54648;-62
2023/07/08 11:15:17;;;;;;;;;8.50;8.00;27.60;52.70;;;;;;111501;1241;44823;-64
2023/07/08 11:17:53;;;;;;;;;13.00;11.25;27.60;52.70;;;;;;111394;1244;49452;-63
2023/07/08 11:20:33;;;;;;;;;9.50;9.25;27.60;52.50;;;;;;111505;1242;48787;-64
2023/07/08 11:23:05;;;;;;;;;10.75;9.75;27.60;53.00;;;;;;111646;1243;53990;-63
2023/07/08 11:25:33;;;;;;;;;11.00;10.00;27.70;52.50;;;;;;111342;1243;44348;-64
2023/07/08 11:28:04;;;;;;;;;11.00;10.00;27.70;53.00;;;;;;111318;1238;49896;-63
2023/07/08 11:30:32;;;;;;;;;10.25;9.25;27.70;52.40;;;;;;111697;1238;49841;-63
2023/07/08 11:33:03;;;;;;;;;10.00;9.50;27.60;52.30;;;;;;111524;1238;54144;-61
2023/07/08 11:35:49;;;;;;;;;11.00;10.33;27.60;52.30;;;;;;111283;1243;44747;-63
2023/07/08 11:38:19;;;;;;;;;11.25;10.25;27.70;52.30;;;;;;111699;1239;49785;-63
2023/07/08 11:40:56;;;;;;;;;12.25;10.25;27.70;52.30;;;;;;111700;1237;49048;-62
2023/07/08 11:43:27;;;;;;;;;10.75;10.00;27.70;52.50;;;;;;111490;1242;54171;-63
2023/07/08 11:45:57;;;;;;;;;11.25;10.75;27.70;52.30;;;;;;111710;1241;44395;-63
2023/07/08 11:48:29;;;;;;;;;9.75;8.75;27.70;52.40;;;;;;111621;1237;49598;-63
2023/07/08 11:50:57;;;;;;;;;10.00;9.33;27.70;52.20;;;;;;111503;1236;49837;-64
2023/07/08 11:53:34;;;;;;;;;10.33;10.00;27.70;52.10;;;;;;111660;1242;53829;-64
2023/07/08 11:56:17;;;;;;;;;9.50;9.50;27.70;51.70;;;;;;111745;1238;44457;-62
2023/07/08 11:58:57;;;;;;;;;9.00;8.75;27.70;52.20;;;;;;111575;1238;49294;-62
2023/07/08 12:01:33;;;;;;;;;11.33;10.00;27.70;52.10;;;;;;111404;1238;49174;-63
2023/07/08 12:04:01;;;;;;;;;10.00;10.00;27.70;52.30;;;;;;111488;1238;53761;-63
2023/07/08 12:06:28;;;;;;;;;10.00;9.00;27.70;52.10;;;;;;111496;1241;44673;-62
2023/07/08 12:08:58;;;;;;;;;11.00;9.50;27.70;52.00;;;;;;111707;1241;49069;-61
2023/07/08 12:11:33;;;;;;;;;11.00;10.00;27.70;52.10;;;;;;111685;1238;50292;-63
2023/07/08 12:14:03;;;;;;;;;9.00;8.25;27.70;51.90;;;;;;111707;1241;53763;-64
2023/07/08 12:16:32;;;;;;;;;11.00;9.00;27.70;51.90;;;;;;111310;1239;44296;-62
2023/07/08 12:19:00;;;;;;;;;9.50;9.00;27.70;52.10;;;;;;111517;1243;48771;-61
2023/07/08 12:21:28;;;;;;;;;9.33;9.00;27.70;52.10;;;;;;111495;1240;50267;-62
2023/07/08 12:23:55;;;;;;;;;9.25;9.00;27.70;51.90;;;;;;111745;1241;53927;-63
2023/07/08 12:26:24;;;;;;;;;10.25;10.00;27.70;51.70;;;;;;111686;1241;44681;-63
2023/07/08 12:28:51;;;;;;;;;10.50;9.00;27.70;51.70;;;;;;111678;1237;49276;-63
2023/07/08 12:31:20;;;;;;;;;11.25;9.00;27.70;51.90;;;;;;111536;1244;49736;-62
2023/07/08 12:33:47;;;;;;;;;10.00;9.00;27.70;51.80;;;;;;111562;1237;54921;-64
2023/07/08 12:36:25;;;;;;;;;9.25;9.00;27.70;51.80;;;;;;111619;1241;44726;-64